Time;durP1;ratioP1;P1;durP2;ratioP2;P2;SDS_P1;SDS_P2;PMS_P1;PMS_P2;Temp;Humidity;BMP_temperature;BMP_pressure;BME280_temperature;BME280_humidity;BME280_pressure;Samples;Min_cycle;Max_cycle;Signal;HPM_P1;HPM_P2
2023/11/19 09:50:22;;;;;;;2.17;1.10;;;;;;;13.27;100.00;98487.16;5171357;27;20564;-86
2023/11/19 09:52:50;;;;;;;1.00;0.90;;;;;;;13.95;100.00;98499.38;5135946;27;39945;-88
2023/11/19 09:55:19;;;;;;;2.17;1.20;;;;;;;14.68;100.00;98461.28;5135710;27;42213;-89
2023/11/19 09:57:48;;;;;;;2.00;0.90;;;;;;;15.31;100.00;98491.34;5135770;27;42342;-89
2023/11/19 10:00:19;;;;;;;2.57;1.00;;;;;;;15.68;100.00;98488.13;5171416;27;42508;-89
2023/11/19 10:02:46;;;;;;;1.60;0.90;;;;;;;15.79;100.00;98475.50;5150445;27;39817;-90
2023/11/19 10:05:15;;;;;;;1.83;0.90;;;;;;;16.06;100.00;98480.19;5136762;27;41812;-91
2023/11/19 10:07:47;;;;;;;1.70;0.87;;;;;;;16.28;100.00;98492.41;5137082;27;41482;-91
2023/11/19 10:10:18;;;;;;;2.03;0.93;;;;;;;15.96;100.00;98449.94;5136548;27;41629;-89
2023/11/19 10:12:46;;;;;;;0.93;0.80;;;;;;;16.02;100.00;98445.88;5137030;27;38409;-89
2023/11/19 10:15:21;;;;;;;1.40;1.03;;;;;;;16.23;100.00;98494.66;5136109;27;42107;-91
2023/11/19 10:17:48;;;;;;;2.30;1.07;;;;;;;16.04;100.00;98483.97;5136067;27;42902;-90
2023/11/19 10:20:16;;;;;;;4.30;1.10;;;;;;;15.99;100.00;98499.56;5136291;27;41983;-89
2023/11/19 10:22:45;;;;;;;1.70;1.20;;;;;;;15.87;100.00;98498.00;5153316;27;40467;-89
2023/11/19 10:25:35;;;;;;;4.30;1.20;;;;;;;15.75;100.00;98500.78;5135897;27;41870;-89
2023/11/19 10:28:03;;;;;;;2.03;0.70;;;;;;;15.59;100.00;98495.09;5147633;27;42966;-90
2023/11/19 10:30:33;;;;;;;1.40;0.80;;;;;;;15.50;100.00;98484.38;5141310;27;41626;-90
2023/11/19 10:33:08;;;;;;;0.90;0.73;;;;;;;15.52;100.00;98503.78;5152536;27;40129;-87
2023/11/19 10:35:37;;;;;;;1.80;0.90;;;;;;;15.40;100.00;98501.22;5155893;27;41359;-90
2023/11/19 10:38:15;;;;;;;2.00;0.80;;;;;;;15.32;100.00;98501.06;5153279;27;42557;-89
2023/11/19 10:40:44;;;;;;;2.50;0.90;;;;;;;15.25;100.00;98491.03;5135691;27;41217;-90
2023/11/19 10:43:13;;;;;;;2.23;1.10;;;;;;;15.44;100.00;98505.31;5134598;27;39136;-88
2023/11/19 10:45:41;;;;;;;2.33;0.90;;;;;;;17.82;98.88;98488.50;5135390;27;42228;-90
2023/11/19 10:48:09;;;;;;;1.50;0.60;;;;;;;21.86;79.98;98517.88;5134585;27;42596;-93
2023/11/19 10:50:38;;;;;;;0.77;0.60;;;;;;;21.93;69.67;98533.34;5135185;27;41255;-92
2023/11/19 10:53:09;;;;;;;1.77;0.80;;;;;;;20.39;69.80;98516.41;5135559;27;38550;-90
2023/11/19 10:55:39;;;;;;;0.97;0.60;;;;;;;19.31;71.43;98513.59;5166995;27;42236;-91
2023/11/19 10:58:08;;;;;;;0.97;0.67;;;;;;;18.59;75.34;98518.28;5151945;27;44237;-90
2023/11/19 11:00:40;;;;;;;0.80;0.60;;;;;;;17.93;77.56;98499.00;5128680;27;41200;-91
2023/11/19 11:03:12;;;;;;;1.70;0.50;;;;;;;17.53;80.26;98505.53;5139634;27;38511;-91
2023/11/19 11:05:40;;;;;;;2.67;0.60;;;;;;;17.09;83.15;98476.81;5136712;27;42001;-91
2023/11/19 11:08:10;;;;;;;1.70;0.60;;;;;;;16.55;84.43;98445.41;5121419;27;41957;-93
2023/11/19 11:10:49;;;;;;;1.80;0.70;;;;;;;16.54;85.77;98476.66;5120729;27;41229;-92
2023/11/19 11:13:17;;;;;;;1.13;0.70;;;;;;;16.23;86.73;98461.75;5123255;27;38831;-89
2023/11/19 11:15:48;;;;;;;1.80;0.80;;;;;;;16.03;88.25;98464.44;5122682;27;40944;-92
2023/11/19 11:18:17;;;;;;;2.03;0.80;;;;;;;15.70;88.92;98449.59;5122429;27;43340;-92
2023/11/19 11:20:46;;;;;;;0.90;0.60;;;;;;;15.84;90.74;98488.41;5122541;27;41245;-93
2023/11/19 11:23:35;;;;;;;1.43;0.83;;;;;;;15.67;91.60;98465.09;5121560;27;39260;-91
2023/11/19 11:26:20;;;;;;;2.30;0.87;;;;;;;15.38;91.15;98439.13;5139520;27;40710;-93
2023/11/19 11:28:56;;;;;;;1.00;0.90;;;;;;;15.61;91.72;98450.44;5139465;27;43482;-92
2023/11/19 11:31:37;;;;;;;2.30;0.90;;;;;;;15.97;91.42;98488.16;5122078;27;41654;-90
2023/11/19 11:34:40;;;;;;;0.93;0.70;;;;;;;16.41;90.38;98492.13;5139135;27;40018;-91
2023/11/19 11:37:18;;;;;;;2.73;1.00;;;;;;;18.26;83.96;98484.94;5116461;27;42006;-94
2023/11/19 11:39:48;;;;;;;2.57;0.97;;;;;;;20.69;75.67;98511.34;5139204;27;42575;-91
2023/11/19 11:42:35;;;;;;;1.23;0.83;;;;;;;22.06;65.98;98526.38;5120526;27;42942;-92
2023/11/19 11:45:07;;;;;;;2.53;1.03;;;;;;;22.06;63.34;98534.47;5138660;27;40433;-92
2023/11/19 11:48:13;;;;;;;1.40;0.73;;;;;;;22.74;61.62;98539.13;5120476;27;42058;-93
2023/11/19 11:50:55;;;;;;;2.07;1.00;;;;;;;22.40;61.79;98517.91;5123397;27;42449;-89
2023/11/19 11:53:24;;;;;;;1.57;1.00;;;;;;;22.54;61.35;98530.63;5120999;27;40927;-92
2023/11/19 11:55:59;;;;;;;1.83;0.90;;;;;;;21.93;61.81;98530.63;5138719;27;39739;-90
2023/11/19 11:58:32;;;;;;;1.57;0.93;;;;;;;20.84;62.33;98488.16;5120955;27;42897;-91
2023/11/19 12:01:01;;;;;;;1.83;0.90;;;;;;;20.24;65.28;98492.97;5120096;27;41975;-92
2023/11/19 12:03:31;;;;;;;1.90;1.13;;;;;;;19.42;67.29;98464.97;5120510;27;42419;-90
2023/11/19 12:05:59;;;;;;;0.87;0.70;;;;;;;19.09;69.38;98487.28;5121252;27;39545;-92
2023/11/19 12:08:29;;;;;;;1.07;0.90;;;;;;;18.58;70.55;98468.31;5121656;27;41914;-91
2023/11/19 12:11:00;;;;;;;1.83;1.10;;;;;;;18.28;72.44;98461.50;5122134;27;41961;-94
2023/11/19 12:13:49;;;;;;;1.60;0.97;;;;;;;17.94;73.59;98460.50;5140823;27;41560;-92
2023/11/19 12:16:17;;;;;;;2.97;1.40;;;;;;;17.64;73.91;98450.97;5125874;27;40142;-93
2023/11/19 12:18:45;;;;;;;3.27;1.30;;;;;;;17.59;74.51;98480.84;5126213;27;40852;-93
2023/11/19 12:21:28;;;;;;;3.47;1.20;;;;;;;17.37;76.37;98475.88;5128546;27;43314;-90
2023/11/19 12:24:03;;;;;;;4.57;1.97;;;;;;;17.01;76.23;98431.25;5127974;27;41877;-92
2023/11/19 12:26:39;;;;;;;2.10;1.60;;;;;;;17.11;76.63;98437.41;5143292;27;39230;-95
2023/11/19 12:29:07;;;;;;;3.47;1.30;;;;;;;17.31;76.28;98476.44;5122301;27;40842;-95
2023/11/19 12:31:38;;;;;;;4.47;1.93;;;;;;;19.67;74.03;98476.69;5125216;27;42863;-92
2023/11/19 12:34:11;;;;;;;3.57;2.07;;;;;;;22.54;64.34;98460.47;5120626;27;41044;-92
2023/11/19 12:36:41;;;;;;;2.07;1.20;;;;;;;24.57;57.53;98492.41;5128138;27;40588;-92
2023/11/19 12:39:12;;;;;;;2.00;0.77;;;;;;;24.77;51.37;98525.94;5122778;27;41697;-92
2023/11/19 12:41:55;;;;;;;0.97;0.87;;;;;;;24.66;52.68;98505.63;5125978;27;42703;-92
2023/11/19 12:44:23;;;;;;;1.63;0.60;;;;;;;24.82;49.96;98506.41;5128598;27;41105;-92
2023/11/19 12:47:02;;;;;;;1.40;1.00;;;;;;;24.32;50.50;98502.78;5124976;27;38984;-93
2023/11/19 12:49:30;;;;;;;4.23;0.90;;;;;;;24.59;48.30;98520.97;5120771;27;45175;-89
2023/11/19 12:51:57;;;;;;;2.63;1.03;;;;;;;24.52;49.08;98522.75;5139858;27;43397;-92
2023/11/19 12:54:36;;;;;;;1.13;0.70;;;;;;;23.55;49.58;98494.31;5141436;27;40961;-92
2023/11/19 12:57:06;;;;;;;1.97;0.80;;;;;;;22.41;51.46;98478.28;5122374;27;38677;-92
2023/11/19 12:59:34;;;;;;;2.50;1.10;;;;;;;21.74;54.27;98449.19;5128090;27;41919;-92
2023/11/19 13:02:05;;;;;;;0.80;0.73;;;;;;;21.50;52.86;98482.47;5121667;27;42608;-91
2023/11/19 13:04:33;;;;;;;1.10;0.70;;;;;;;20.95;53.25;98490.50;5138613;27;41529;-89
2023/11/19 13:07:03;;;;;;;3.93;0.90;;;;;;;20.43;54.10;98500.75;5120370;27;39731;-93
2023/11/19 13:09:32;;;;;;;3.00;1.07;;;;;;;19.92;55.95;98469.53;5124081;27;41217;-92
2023/11/19 13:12:03;;;;;;;2.47;1.00;;;;;;;19.39;57.12;98416.97;5124891;27;42934;-92
2023/11/19 13:14:39;;;;;;;1.80;0.70;;;;;;;19.25;57.29;98428.31;5123943;27;41354;-89
2023/11/19 13:17:07;;;;;;;1.73;0.90;;;;;;;19.37;58.62;98460.09;5121603;27;39037;-93
2023/11/19 13:19:35;;;;;;;2.53;0.63;;;;;;;19.08;59.77;98399.72;5125467;27;40743;-93
2023/11/19 13:22:03;;;;;;;2.00;0.90;;;;;;;19.26;58.83;98467.59;5139566;27;41857;-92
2023/11/19 13:24:32;;;;;;;2.13;1.00;;;;;;;18.97;60.39;98441.94;5124822;27;40929;-89
2023/11/19 13:26:59;;;;;;;1.70;1.07;;;;;;;18.56;61.13;98427.38;5130373;27;39051;-91
2023/11/19 13:29:27;;;;;;;1.63;0.90;;;;;;;18.53;61.71;98449.16;5133765;27;41166;-88
2023/11/19 13:31:57;;;;;;;2.83;0.93;;;;;;;18.26;62.69;98415.25;5141943;27;42069;-88
2023/11/19 13:34:25;;;;;;;2.17;0.80;;;;;;;17.99;63.84;98376.97;5136887;27;42163;-95
2023/11/19 13:36:53;;;;;;;2.77;0.90;;;;;;;17.97;64.61;98403.94;5126487;27;39137;-89
2023/11/19 13:39:23;;;;;;;1.87;0.90;;;;;;;17.50;65.05;98389.88;5155146;27;41765;-92
2023/11/19 13:41:51;;;;;;;1.20;0.60;;;;;;;17.31;65.77;98385.44;5119993;27;41869;-93
2023/11/19 13:44:18;;;;;;;1.07;0.77;;;;;;;17.32;65.58;98403.19;5137336;27;40923;-92
2023/11/19 13:46:47;;;;;;;1.23;0.90;;;;;;;17.29;65.56;98424.09;5120646;27;40133;-90
2023/11/19 13:49:16;;;;;;;2.27;0.83;;;;;;;16.83;64.41;98385.69;5135507;27;42846;-92
2023/11/19 13:51:44;;;;;;;1.63;0.67;;;;;;;16.53;64.50;98341.31;5119332;27;42676;-95
2023/11/19 13:54:14;;;;;;;2.43;1.30;;;;;;;16.48;65.54;98348.91;5118921;27;42122;-93
2023/11/19 13:56:44;;;;;;;1.77;0.80;;;;;;;16.60;65.42;98417.25;5135970;27;40485;-91
2023/11/19 13:59:12;;;;;;;1.23;0.80;;;;;;;16.40;63.30;98428.97;5118046;27;40836;-91
2023/11/19 14:01:39;;;;;;;5.43;0.93;;;;;;;16.13;63.38;98429.69;5134972;27;42818;-88
2023/11/19 14:04:08;;;;;;;2.97;0.77;;;;;;;15.99;64.20;98433.63;5120248;27;42318;-93
2023/11/19 14:06:38;;;;;;;2.07;0.80;;;;;;;15.90;64.33;98433.63;5118655;27;40216;-91
2023/11/19 14:09:07;;;;;;;4.27;1.17;;;;;;;15.74;65.28;98428.84;5118514;27;41061;-91
2023/11/19 14:11:35;;;;;;;1.33;0.80;;;;;;;15.53;65.68;98385.38;5135540;27;43517;-90
2023/11/19 14:14:03;;;;;;;2.00;0.77;;;;;;;15.70;65.69;98409.56;5121136;27;42377;-92
2023/11/19 14:16:32;;;;;;;2.60;0.90;;;;;;;16.04;65.01;98410.03;5120964;27;38931;-89
2023/11/19 14:18:59;;;;;;;1.77;0.97;;;;;;;16.22;63.79;98390.59;5137211;27;41834;-92
2023/11/19 14:21:27;;;;;;;3.03;1.03;;;;;;;16.58;62.29;98429.91;5119164;27;42983;-89
2023/11/19 14:23:57;;;;;;;2.20;1.13;;;;;;;17.10;60.48;98419.66;5118728;27;42707;-93
2023/11/19 14:26:25;;;;;;;2.53;1.10;;;;;;;17.55;59.55;98451.84;5119829;27;39007;-92
2023/11/19 14:28:52;;;;;;;1.73;0.80;;;;;;;17.56;58.61;98459.72;5121553;27;40622;-92
2023/11/19 14:31:21;;;;;;;3.63;1.13;;;;;;;17.14;59.18;98439.78;5138232;27;42974;-94
2023/11/19 14:33:49;;;;;;;1.17;0.70;;;;;;;16.79;60.50;98443.16;5122720;27;43320;-89
2023/11/19 14:36:16;;;;;;;2.63;1.20;;;;;;;16.48;61.14;98445.13;5121580;27;39120;-86
2023/11/19 14:38:44;;;;;;;2.07;0.90;;;;;;;16.27;61.44;98463.16;5123994;27;41177;-94
2023/11/19 14:41:14;;;;;;;4.37;1.00;;;;;;;15.95;62.58;98432.22;5122236;27;41981;-92
2023/11/19 14:43:42;;;;;;;1.43;0.80;;;;;;;15.73;63.14;98438.66;5127163;27;42463;-91
2023/11/19 14:46:10;;;;;;;1.00;0.70;;;;;;;15.54;63.78;98432.44;5122211;27;39699;-90
2023/11/19 14:48:37;;;;;;;3.67;0.90;;;;;;;15.36;63.82;98429.56;5120893;27;41437;-90
2023/11/19 14:51:05;;;;;;;3.80;0.80;;;;;;;15.21;64.60;98421.09;5122471;27;41778;-92
2023/11/19 14:53:34;;;;;;;3.83;0.90;;;;;;;15.12;65.20;98421.91;5123205;27;41039;-92
2023/11/19 14:56:02;;;;;;;3.07;0.90;;;;;;;14.98;66.16;98409.78;5121950;27;38964;-90
2023/11/19 14:58:31;;;;;;;4.23;1.13;;;;;;;14.93;66.46;98409.34;5121897;27;40966;-90
2023/11/19 15:00:59;;;;;;;2.00;0.60;;;;;;;14.94;67.34;98418.19;5121301;27;41764;-92
2023/11/19 15:03:26;;;;;;;3.60;0.80;;;;;;;14.58;67.31;98379.59;5138397;27;41319;-92
2023/11/19 15:05:54;;;;;;;3.40;0.90;;;;;;;14.68;67.60;98402.66;5121329;27;39855;-91
2023/11/19 15:08:21;;;;;;;1.50;0.73;;;;;;;14.56;68.16;98382.38;5122719;27;42530;-92
2023/11/19 15:10:49;;;;;;;1.43;0.60;;;;;;;14.49;69.01;98389.19;5140879;27;41484;-92
2023/11/19 15:13:17;;;;;;;4.07;1.00;;;;;;;14.35;69.14;98381.50;5124834;27;41484;-89
2023/11/19 15:15:46;;;;;;;3.60;1.20;;;;;;;14.29;69.60;98385.56;5123650;27;38957;-90
2023/11/19 15:18:14;;;;;;;3.33;1.17;;;;;;;13.87;69.92;98334.09;5124453;27;40571;-89
2023/11/19 15:20:41;;;;;;;2.70;1.07;;;;;;;14.05;69.45;98382.31;5141270;27;43657;-92
2023/11/19 15:23:09;;;;;;;3.10;1.10;;;;;;;13.84;70.06;98363.66;5141182;27;42607;-91
2023/11/19 15:25:37;;;;;;;2.13;0.60;;;;;;;13.93;69.85;98405.47;5123934;27;39038;-91
2023/11/19 15:28:05;;;;;;;4.40;1.13;;;;;;;13.49;69.63;98331.13;5139972;27;42220;-90
2023/11/19 15:30:33;;;;;;;3.50;0.90;;;;;;;13.73;69.90;98381.47;5122552;27;42042;-90
2023/11/19 15:33:02;;;;;;;3.03;0.97;;;;;;;13.72;69.91;98391.31;5122111;27;41275;-90
2023/11/19 15:35:29;;;;;;;1.87;0.80;;;;;;;13.64;70.19;98396.38;5139672;27;38632;-91
2023/11/19 15:37:57;;;;;;;1.90;0.90;;;;;;;13.68;70.57;98415.63;5122074;27;40578;-91
2023/11/19 15:40:25;;;;;;;3.13;1.47;;;;;;;13.32;70.58;98367.13;5122259;27;41961;-92
2023/11/19 15:42:54;;;;;;;3.83;1.20;;;;;;;13.31;70.91;98378.72;5137423;27;41345;-89
2023/11/19 15:45:22;;;;;;;1.97;1.30;;;;;;;13.35;71.54;98408.59;5142201;27;39602;-90
2023/11/19 15:47:50;;;;;;;1.80;1.00;;;;;;;13.30;71.73;98414.25;5142405;27;41800;-89
2023/11/19 15:50:20;;;;;;;1.90;0.77;;;;;;;13.26;71.84;98432.25;5143261;27;43832;-88
2023/11/19 15:52:48;;;;;;;1.33;1.10;;;;;;;13.14;72.33;98430.59;5143010;27;41023;-89
2023/11/19 15:55:15;;;;;;;2.97;1.07;;;;;;;12.79;72.27;98382.00;5147735;27;39165;-92
2023/11/19 15:57:43;;;;;;;2.03;0.90;;;;;;;12.95;72.83;98417.03;5157435;27;41995;-90
2023/11/19 16:00:11;;;;;;;2.30;0.97;;;;;;;12.65;73.22;98379.59;5139207;27;41908;-90
2023/11/19 16:02:39;;;;;;;2.17;0.73;;;;;;;12.82;73.40;98405.69;5138935;27;41294;-91
2023/11/19 16:05:08;;;;;;;2.43;0.70;;;;;;;12.88;73.46;98431.75;5138509;27;39148;-91
2023/11/19 16:07:38;;;;;;;2.30;0.87;;;;;;;12.63;74.09;98405.44;5154656;27;40593;-89
2023/11/19 16:10:09;;;;;;;2.70;1.10;;;;;;;12.66;75.02;98415.81;5137024;27;41980;-89
2023/11/19 16:12:36;;;;;;;1.07;0.80;;;;;;;12.72;75.12;98421.53;5139692;27;41531;-91
2023/11/19 16:15:05;;;;;;;2.27;0.70;;;;;;;12.64;75.26;98417.75;5139139;27;40122;-92
